sensor_id;sensor_type;location;lat;lon;timestamp;P1;durP1;ratioP1;P2;durP2;ratioP2
5493;SDS011;2769;49.864;8.656;2023-12-22T00:02:11;1.90;;;0.63;;
5493;SDS011;2769;49.864;8.656;2023-12-22T00:04:57;1.27;;;0.93;;
5493;SDS011;2769;49.864;8.656;2023-12-22T00:07:44;1.00;;;0.53;;
5493;SDS011;2769;49.864;8.656;2023-12-22T00:10:31;0.60;;;0.60;;
5493;SDS011;2769;49.864;8.656;2023-12-22T00:13:19;1.23;;;0.50;;
5493;SDS011;2769;49.864;8.656;2023-12-22T00:16:06;0.50;;;0.50;;
5493;SDS011;2769;49.864;8.656;2023-12-22T00:18:53;0.60;;;0.50;;
5493;SDS011;2769;49.864;8.656;2023-12-22T00:21:41;0.87;;;0.50;;
5493;SDS011;2769;49.864;8.656;2023-12-22T00:24:27;0.50;;;0.50;;
5493;SDS011;2769;49.864;8.656;2023-12-22T00:27:14;0.50;;;0.50;;
5493;SDS011;2769;49.864;8.656;2023-12-22T00:30:02;0.50;;;0.50;;
5493;SDS011;2769;49.864;8.656;2023-12-22T00:32:49;0.73;;;0.50;;
5493;SDS011;2769;49.864;8.656;2023-12-22T00:35:36;0.50;;;0.50;;
5493;SDS011;2769;49.864;8.656;2023-12-22T00:38:22;0.77;;;0.77;;
5493;SDS011;2769;49.864;8.656;2023-12-22T00:41:09;0.50;;;0.50;;
5493;SDS011;2769;49.864;8.656;2023-12-22T00:43:56;0.57;;;0.57;;
5493;SDS011;2769;49.864;8.656;2023-12-22T00:46:44;0.63;;;0.50;;
5493;SDS011;2769;49.864;8.656;2023-12-22T00:49:31;0.50;;;0.50;;
5493;SDS011;2769;49.864;8.656;2023-12-22T00:52:17;1.70;;;1.60;;
5493;SDS011;2769;49.864;8.656;2023-12-22T00:55:04;2.00;;;0.50;;
5493;SDS011;2769;49.864;8.656;2023-12-22T00:57:50;0.50;;;0.50;;
5493;SDS011;2769;49.864;8.656;2023-12-22T01:00:37;1.80;;;0.60;;
5493;SDS011;2769;49.864;8.656;2023-12-22T01:03:24;0.60;;;0.60;;
5493;SDS011;2769;49.864;8.656;2023-12-22T01:06:11;0.63;;;0.60;;
5493;SDS011;2769;49.864;8.656;2023-12-22T01:08:57;0.70;;;0.70;;
5493;SDS011;2769;49.864;8.656;2023-12-22T01:11:43;0.60;;;0.60;;
5493;SDS011;2769;49.864;8.656;2023-12-22T01:14:29;1.23;;;0.70;;
5493;SDS011;2769;49.864;8.656;2023-12-22T01:17:16;1.07;;;0.77;;
5493;SDS011;2769;49.864;8.656;2023-12-22T01:20:04;1.63;;;0.73;;
5493;SDS011;2769;49.864;8.656;2023-12-22T01:22:51;1.10;;;0.80;;
5493;SDS011;2769;49.864;8.656;2023-12-22T01:25:38;0.60;;;0.60;;
5493;SDS011;2769;49.864;8.656;2023-12-22T01:28:24;1.10;;;0.70;;
5493;SDS011;2769;49.864;8.656;2023-12-22T01:31:10;2.10;;;0.70;;
5493;SDS011;2769;49.864;8.656;2023-12-22T01:33:57;0.73;;;0.73;;
5493;SDS011;2769;49.864;8.656;2023-12-22T01:36:45;1.80;;;0.70;;
5493;SDS011;2769;49.864;8.656;2023-12-22T01:39:31;0.63;;;0.63;;
5493;SDS011;2769;49.864;8.656;2023-12-22T01:42:17;2.33;;;1.07;;
5493;SDS011;2769;49.864;8.656;2023-12-22T01:45:04;2.30;;;1.10;;
5493;SDS011;2769;49.864;8.656;2023-12-22T01:47:52;1.07;;;0.80;;
5493;SDS011;2769;49.864;8.656;2023-12-22T01:50:39;0.90;;;0.70;;
5493;SDS011;2769;49.864;8.656;2023-12-22T01:53:27;0.50;;;0.50;;
5493;SDS011;2769;49.864;8.656;2023-12-22T01:56:14;3.07;;;0.67;;
5493;SDS011;2769;49.864;8.656;2023-12-22T01:59:01;5.50;;;0.70;;
5493;SDS011;2769;49.864;8.656;2023-12-22T02:01:47;0.60;;;0.60;;
5493;SDS011;2769;49.864;8.656;2023-12-22T02:04:34;1.07;;;0.80;;
5493;SDS011;2769;49.864;8.656;2023-12-22T02:07:21;1.70;;;0.60;;
5493;SDS011;2769;49.864;8.656;2023-12-22T02:10:09;2.97;;;0.70;;
5493;SDS011;2769;49.864;8.656;2023-12-22T02:12:56;0.70;;;0.70;;
5493;SDS011;2769;49.864;8.656;2023-12-22T02:15:42;1.17;;;0.80;;
5493;SDS011;2769;49.864;8.656;2023-12-22T02:18:30;1.17;;;0.70;;
5493;SDS011;2769;49.864;8.656;2023-12-22T02:21:20;0.67;;;0.67;;
5493;SDS011;2769;49.864;8.656;2023-12-22T02:24:07;2.77;;;0.80;;
5493;SDS011;2769;49.864;8.656;2023-12-22T02:26:54;1.70;;;0.80;;
5493;SDS011;2769;49.864;8.656;2023-12-22T02:29:43;5.33;;;0.87;;
5493;SDS011;2769;49.864;8.656;2023-12-22T02:32:35;0.90;;;0.90;;
5493;SDS011;2769;49.864;8.656;2023-12-22T02:35:24;1.03;;;0.80;;
5493;SDS011;2769;49.864;8.656;2023-12-22T02:38:12;0.70;;;0.70;;
5493;SDS011;2769;49.864;8.656;2023-12-22T02:41:00;0.73;;;0.73;;
5493;SDS011;2769;49.864;8.656;2023-12-22T02:43:47;1.37;;;0.90;;
5493;SDS011;2769;49.864;8.656;2023-12-22T02:46:34;3.47;;;1.03;;
5493;SDS011;2769;49.864;8.656;2023-12-22T02:49:21;0.70;;;0.70;;
5493;SDS011;2769;49.864;8.656;2023-12-22T02:52:08;0.80;;;0.70;;
5493;SDS011;2769;49.864;8.656;2023-12-22T02:54:54;2.70;;;0.70;;
5493;SDS011;2769;49.864;8.656;2023-12-22T02:57:42;2.70;;;0.80;;
5493;SDS011;2769;49.864;8.656;2023-12-22T03:00:28;1.17;;;0.60;;
5493;SDS011;2769;49.864;8.656;2023-12-22T03:03:14;1.07;;;0.60;;
5493;SDS011;2769;49.864;8.656;2023-12-22T03:06:01;1.20;;;0.60;;
5493;SDS011;2769;49.864;8.656;2023-12-22T03:08:48;2.10;;;0.70;;
5493;SDS011;2769;49.864;8.656;2023-12-22T03:11:35;1.17;;;1.03;;
5493;SDS011;2769;49.864;8.656;2023-12-22T03:14:22;1.90;;;0.70;;
5493;SDS011;2769;49.864;8.656;2023-12-22T03:17:08;1.63;;;0.70;;
5493;SDS011;2769;49.864;8.656;2023-12-22T03:19:55;1.77;;;0.90;;
5493;SDS011;2769;49.864;8.656;2023-12-22T03:22:43;1.83;;;0.70;;
5493;SDS011;2769;49.864;8.656;2023-12-22T03:25:29;0.67;;;0.60;;
5493;SDS011;2769;49.864;8.656;2023-12-22T03:28:16;1.80;;;0.83;;
5493;SDS011;2769;49.864;8.656;2023-12-22T03:31:04;0.70;;;0.60;;
5493;SDS011;2769;49.864;8.656;2023-12-22T03:33:52;1.30;;;0.70;;
5493;SDS011;2769;49.864;8.656;2023-12-22T03:36:39;4.80;;;0.80;;
5493;SDS011;2769;49.864;8.656;2023-12-22T03:39:25;1.03;;;0.70;;
5493;SDS011;2769;49.864;8.656;2023-12-22T03:42:11;1.23;;;0.87;;
5493;SDS011;2769;49.864;8.656;2023-12-22T03:44:57;1.90;;;0.80;;
5493;SDS011;2769;49.864;8.656;2023-12-22T03:47:45;0.90;;;0.90;;
5493;SDS011;2769;49.864;8.656;2023-12-22T03:50:32;0.90;;;0.73;;
5493;SDS011;2769;49.864;8.656;2023-12-22T03:53:18;1.43;;;0.70;;
5493;SDS011;2769;49.864;8.656;2023-12-22T03:56:06;2.00;;;0.80;;
5493;SDS011;2769;49.864;8.656;2023-12-22T03:58:53;4.70;;;1.00;;
5493;SDS011;2769;49.864;8.656;2023-12-22T04:01:41;4.97;;;1.10;;
5493;SDS011;2769;49.864;8.656;2023-12-22T04:04:29;2.30;;;0.97;;
5493;SDS011;2769;49.864;8.656;2023-12-22T04:07:17;2.20;;;1.10;;
5493;SDS011;2769;49.864;8.656;2023-12-22T04:10:04;3.10;;;0.90;;
5493;SDS011;2769;49.864;8.656;2023-12-22T04:12:51;2.43;;;1.00;;
5493;SDS011;2769;49.864;8.656;2023-12-22T04:15:37;1.10;;;1.00;;
5493;SDS011;2769;49.864;8.656;2023-12-22T04:18:23;1.20;;;1.03;;
5493;SDS011;2769;49.864;8.656;2023-12-22T04:21:11;3.00;;;0.90;;
5493;SDS011;2769;49.864;8.656;2023-12-22T04:23:58;0.90;;;0.90;;
5493;SDS011;2769;49.864;8.656;2023-12-22T04:26:44;3.60;;;0.80;;
5493;SDS011;2769;49.864;8.656;2023-12-22T04:29:31;3.60;;;0.90;;
5493;SDS011;2769;49.864;8.656;2023-12-22T04:32:17;1.27;;;0.80;;
5493;SDS011;2769;49.864;8.656;2023-12-22T04:35:04;2.90;;;1.07;;
5493;SDS011;2769;49.864;8.656;2023-12-22T04:37:52;1.23;;;0.77;;
5493;SDS011;2769;49.864;8.656;2023-12-22T04:40:39;3.33;;;0.90;;
5493;SDS011;2769;49.864;8.656;2023-12-22T04:43:25;0.80;;;0.80;;
5493;SDS011;2769;49.864;8.656;2023-12-22T04:46:12;1.60;;;1.00;;
5493;SDS011;2769;49.864;8.656;2023-12-22T04:48:59;4.33;;;1.27;;
5493;SDS011;2769;49.864;8.656;2023-12-22T04:51:47;2.17;;;0.90;;
5493;SDS011;2769;49.864;8.656;2023-12-22T04:54:35;5.00;;;0.70;;
5493;SDS011;2769;49.864;8.656;2023-12-22T04:57:21;1.80;;;0.93;;
5493;SDS011;2769;49.864;8.656;2023-12-22T05:00:08;1.87;;;0.90;;
5493;SDS011;2769;49.864;8.656;2023-12-22T05:02:54;1.20;;;0.80;;
5493;SDS011;2769;49.864;8.656;2023-12-22T05:05:41;0.90;;;0.80;;
5493;SDS011;2769;49.864;8.656;2023-12-22T05:08:27;1.83;;;0.90;;
5493;SDS011;2769;49.864;8.656;2023-12-22T05:11:15;2.23;;;0.80;;
5493;SDS011;2769;49.864;8.656;2023-12-22T05:14:01;0.70;;;0.70;;
5493;SDS011;2769;49.864;8.656;2023-12-22T05:16:48;4.43;;;0.90;;
5493;SDS011;2769;49.864;8.656;2023-12-22T05:19:34;4.40;;;0.90;;
5493;SDS011;2769;49.864;8.656;2023-12-22T05:22:21;2.67;;;1.47;;
5493;SDS011;2769;49.864;8.656;2023-12-22T05:25:08;1.50;;;1.20;;
5493;SDS011;2769;49.864;8.656;2023-12-22T05:27:57;1.80;;;1.00;;
5493;SDS011;2769;49.864;8.656;2023-12-22T05:30:43;1.83;;;0.97;;
5493;SDS011;2769;49.864;8.656;2023-12-22T05:33:30;1.83;;;1.10;;
5493;SDS011;2769;49.864;8.656;2023-12-22T05:36:16;8.30;;;1.13;;
5493;SDS011;2769;49.864;8.656;2023-12-22T05:39:03;1.10;;;0.83;;
5493;SDS011;2769;49.864;8.656;2023-12-22T05:41:49;4.37;;;1.10;;
5493;SDS011;2769;49.864;8.656;2023-12-22T05:44:37;4.20;;;1.27;;
5493;SDS011;2769;49.864;8.656;2023-12-22T05:47:24;2.77;;;1.00;;
5493;SDS011;2769;49.864;8.656;2023-12-22T05:50:10;1.03;;;0.90;;
5493;SDS011;2769;49.864;8.656;2023-12-22T05:52:57;1.67;;;1.10;;
5493;SDS011;2769;49.864;8.656;2023-12-22T05:55:45;3.27;;;1.50;;
5493;SDS011;2769;49.864;8.656;2023-12-22T05:58:31;2.10;;;1.03;;
5493;SDS011;2769;49.864;8.656;2023-12-22T06:01:20;3.03;;;0.80;;
5493;SDS011;2769;49.864;8.656;2023-12-22T06:04:06;1.07;;;1.03;;
5493;SDS011;2769;49.864;8.656;2023-12-22T06:06:53;2.87;;;1.00;;
5493;SDS011;2769;49.864;8.656;2023-12-22T06:09:40;5.07;;;1.27;;
5493;SDS011;2769;49.864;8.656;2023-12-22T06:12:26;3.57;;;1.40;;
5493;SDS011;2769;49.864;8.656;2023-12-22T06:15:12;1.57;;;1.37;;
5493;SDS011;2769;49.864;8.656;2023-12-22T06:18:00;1.73;;;1.00;;
5493;SDS011;2769;49.864;8.656;2023-12-22T06:20:47;2.30;;;0.80;;
5493;SDS011;2769;49.864;8.656;2023-12-22T06:23:34;3.70;;;1.07;;
5493;SDS011;2769;49.864;8.656;2023-12-22T06:26:21;4.00;;;1.90;;
5493;SDS011;2769;49.864;8.656;2023-12-22T06:29:08;1.20;;;1.00;;
5493;SDS011;2769;49.864;8.656;2023-12-22T06:31:55;1.30;;;1.20;;
5493;SDS011;2769;49.864;8.656;2023-12-22T06:34:44;2.17;;;1.07;;
5493;SDS011;2769;49.864;8.656;2023-12-22T06:37:31;3.47;;;1.20;;
5493;SDS011;2769;49.864;8.656;2023-12-22T06:40:17;3.07;;;1.00;;
5493;SDS011;2769;49.864;8.656;2023-12-22T06:43:05;1.73;;;1.07;;
5493;SDS011;2769;49.864;8.656;2023-12-22T06:45:51;1.10;;;0.80;;
5493;SDS011;2769;49.864;8.656;2023-12-22T06:48:40;3.83;;;1.03;;
5493;SDS011;2769;49.864;8.656;2023-12-22T06:51:29;6.23;;;1.13;;
5493;SDS011;2769;49.864;8.656;2023-12-22T06:54:16;2.97;;;1.13;;
5493;SDS011;2769;49.864;8.656;2023-12-22T06:57:03;5.20;;;1.53;;
5493;SDS011;2769;49.864;8.656;2023-12-22T06:59:51;2.87;;;1.10;;
5493;SDS011;2769;49.864;8.656;2023-12-22T07:02:38;3.40;;;1.17;;
5493;SDS011;2769;49.864;8.656;2023-12-22T07:05:32;11.53;;;1.60;;
5493;SDS011;2769;49.864;8.656;2023-12-22T07:08:23;3.07;;;1.40;;
5493;SDS011;2769;49.864;8.656;2023-12-22T07:11:10;5.80;;;1.30;;
5493;SDS011;2769;49.864;8.656;2023-12-22T07:13:56;4.20;;;1.27;;
5493;SDS011;2769;49.864;8.656;2023-12-22T07:16:44;5.93;;;1.67;;
5493;SDS011;2769;49.864;8.656;2023-12-22T07:19:30;4.57;;;1.77;;
5493;SDS011;2769;49.864;8.656;2023-12-22T07:22:17;2.80;;;1.60;;
5493;SDS011;2769;49.864;8.656;2023-12-22T07:25:06;4.23;;;2.50;;
5493;SDS011;2769;49.864;8.656;2023-12-22T07:27:53;3.03;;;1.60;;
5493;SDS011;2769;49.864;8.656;2023-12-22T07:30:39;6.60;;;1.40;;
5493;SDS011;2769;49.864;8.656;2023-12-22T07:33:25;4.23;;;1.73;;
5493;SDS011;2769;49.864;8.656;2023-12-22T07:36:13;4.80;;;2.03;;
5493;SDS011;2769;49.864;8.656;2023-12-22T07:39:00;7.00;;;2.47;;
5493;SDS011;2769;49.864;8.656;2023-12-22T07:41:47;3.80;;;1.50;;
5493;SDS011;2769;49.864;8.656;2023-12-22T07:44:34;10.33;;;2.03;;
5493;SDS011;2769;49.864;8.656;2023-12-22T07:47:20;11.13;;;1.77;;
5493;SDS011;2769;49.864;8.656;2023-12-22T07:50:07;5.53;;;1.60;;
5493;SDS011;2769;49.864;8.656;2023-12-22T07:52:54;5.03;;;1.80;;
5493;SDS011;2769;49.864;8.656;2023-12-22T07:55:41;8.17;;;1.90;;
5493;SDS011;2769;49.864;8.656;2023-12-22T07:58:29;8.00;;;2.30;;
5493;SDS011;2769;49.864;8.656;2023-12-22T08:01:16;3.53;;;1.80;;
5493;SDS011;2769;49.864;8.656;2023-12-22T08:04:03;7.23;;;1.57;;
5493;SDS011;2769;49.864;8.656;2023-12-22T08:06:49;5.70;;;1.80;;
5493;SDS011;2769;49.864;8.656;2023-12-22T08:09:37;4.53;;;1.70;;
5493;SDS011;2769;49.864;8.656;2023-12-22T08:12:24;6.37;;;1.80;;
5493;SDS011;2769;49.864;8.656;2023-12-22T08:15:12;2.60;;;1.50;;
5493;SDS011;2769;49.864;8.656;2023-12-22T08:18:13;8.43;;;1.70;;
5493;SDS011;2769;49.864;8.656;2023-12-22T08:21:00;2.53;;;1.50;;
5493;SDS011;2769;49.864;8.656;2023-12-22T08:23:58;3.93;;;1.70;;
5493;SDS011;2769;49.864;8.656;2023-12-22T08:26:45;4.53;;;1.67;;
5493;SDS011;2769;49.864;8.656;2023-12-22T08:29:31;10.33;;;1.80;;
5493;SDS011;2769;49.864;8.656;2023-12-22T08:32:20;2.07;;;1.20;;
5493;SDS011;2769;49.864;8.656;2023-12-22T08:35:07;6.03;;;1.50;;
5493;SDS011;2769;49.864;8.656;2023-12-22T08:37:54;2.60;;;1.20;;
5493;SDS011;2769;49.864;8.656;2023-12-22T08:40:40;2.87;;;1.17;;
5493;SDS011;2769;49.864;8.656;2023-12-22T08:43:27;6.50;;;1.23;;
5493;SDS011;2769;49.864;8.656;2023-12-22T08:46:14;6.03;;;1.00;;
5493;SDS011;2769;49.864;8.656;2023-12-22T08:49:02;2.90;;;1.20;;
5493;SDS011;2769;49.864;8.656;2023-12-22T08:51:49;1.70;;;1.20;;
5493;SDS011;2769;49.864;8.656;2023-12-22T08:54:35;3.20;;;1.37;;
5493;SDS011;2769;49.864;8.656;2023-12-22T08:57:21;2.70;;;1.30;;
5493;SDS011;2769;49.864;8.656;2023-12-22T09:00:08;3.20;;;1.40;;
5493;SDS011;2769;49.864;8.656;2023-12-22T09:02:55;2.20;;;1.07;;
5493;SDS011;2769;49.864;8.656;2023-12-22T09:05:43;6.93;;;1.77;;
5493;SDS011;2769;49.864;8.656;2023-12-22T09:08:29;4.60;;;1.40;;
5493;SDS011;2769;49.864;8.656;2023-12-22T09:11:16;7.23;;;1.70;;
5493;SDS011;2769;49.864;8.656;2023-12-22T09:14:04;9.30;;;1.73;;
5493;SDS011;2769;49.864;8.656;2023-12-22T09:16:51;2.50;;;1.50;;
5493;SDS011;2769;49.864;8.656;2023-12-22T09:19:41;5.13;;;1.90;;
5493;SDS011;2769;49.864;8.656;2023-12-22T09:22:29;3.03;;;1.50;;
5493;SDS011;2769;49.864;8.656;2023-12-22T09:25:16;4.97;;;1.80;;
5493;SDS011;2769;49.864;8.656;2023-12-22T09:28:02;5.70;;;1.73;;
5493;SDS011;2769;49.864;8.656;2023-12-22T09:30:49;9.40;;;1.90;;
5493;SDS011;2769;49.864;8.656;2023-12-22T09:33:35;11.33;;;2.07;;
5493;SDS011;2769;49.864;8.656;2023-12-22T09:36:23;6.43;;;2.30;;
5493;SDS011;2769;49.864;8.656;2023-12-22T09:39:10;6.03;;;2.20;;
5493;SDS011;2769;49.864;8.656;2023-12-22T09:42:02;10.20;;;2.10;;
5493;SDS011;2769;49.864;8.656;2023-12-22T09:44:48;5.70;;;2.93;;
5493;SDS011;2769;49.864;8.656;2023-12-22T09:47:35;7.47;;;2.13;;
5493;SDS011;2769;49.864;8.656;2023-12-22T09:50:22;6.30;;;2.20;;
5493;SDS011;2769;49.864;8.656;2023-12-22T09:53:09;4.77;;;1.90;;
5493;SDS011;2769;49.864;8.656;2023-12-22T09:55:58;7.37;;;2.80;;
5493;SDS011;2769;49.864;8.656;2023-12-22T09:58:45;5.03;;;1.73;;
5493;SDS011;2769;49.864;8.656;2023-12-22T10:01:33;9.10;;;2.53;;
5493;SDS011;2769;49.864;8.656;2023-12-22T10:04:20;4.43;;;1.80;;
5493;SDS011;2769;49.864;8.656;2023-12-22T10:07:07;7.77;;;1.80;;
5493;SDS011;2769;49.864;8.656;2023-12-22T10:09:53;4.80;;;1.70;;
5493;SDS011;2769;49.864;8.656;2023-12-22T10:12:42;10.00;;;1.93;;
5493;SDS011;2769;49.864;8.656;2023-12-22T10:15:31;10.97;;;2.47;;
5493;SDS011;2769;49.864;8.656;2023-12-22T10:18:17;7.23;;;2.33;;
5493;SDS011;2769;49.864;8.656;2023-12-22T10:21:04;9.63;;;2.93;;
5493;SDS011;2769;49.864;8.656;2023-12-22T10:23:51;11.50;;;3.03;;
5493;SDS011;2769;49.864;8.656;2023-12-22T10:26:37;14.13;;;2.97;;
5493;SDS011;2769;49.864;8.656;2023-12-22T10:29:25;11.53;;;2.63;;
5493;SDS011;2769;49.864;8.656;2023-12-22T10:32:11;9.97;;;2.70;;
5493;SDS011;2769;49.864;8.656;2023-12-22T10:34:59;13.30;;;3.13;;
5493;SDS011;2769;49.864;8.656;2023-12-22T10:37:46;18.90;;;3.70;;
5493;SDS011;2769;49.864;8.656;2023-12-22T10:40:33;13.07;;;3.03;;
5493;SDS011;2769;49.864;8.656;2023-12-22T10:43:19;10.27;;;3.63;;
5493;SDS011;2769;49.864;8.656;2023-12-22T10:46:07;18.37;;;5.40;;
5493;SDS011;2769;49.864;8.656;2023-12-22T10:48:56;23.40;;;4.00;;
5493;SDS011;2769;49.864;8.656;2023-12-22T10:51:43;19.27;;;3.20;;
5493;SDS011;2769;49.864;8.656;2023-12-22T10:54:30;15.33;;;3.40;;
5493;SDS011;2769;49.864;8.656;2023-12-22T10:57:17;20.57;;;3.30;;
5493;SDS011;2769;49.864;8.656;2023-12-22T11:00:05;18.87;;;3.30;;
5493;SDS011;2769;49.864;8.656;2023-12-22T11:02:56;17.87;;;3.33;;
5493;SDS011;2769;49.864;8.656;2023-12-22T11:05:47;16.10;;;3.33;;
5493;SDS011;2769;49.864;8.656;2023-12-22T11:08:34;16.50;;;2.93;;
5493;SDS011;2769;49.864;8.656;2023-12-22T11:11:25;17.03;;;3.70;;
5493;SDS011;2769;49.864;8.656;2023-12-22T11:14:14;19.20;;;3.27;;
5493;SDS011;2769;49.864;8.656;2023-12-22T11:17:02;16.37;;;2.93;;
5493;SDS011;2769;49.864;8.656;2023-12-22T11:19:52;13.17;;;2.60;;
5493;SDS011;2769;49.864;8.656;2023-12-22T11:22:40;11.33;;;3.10;;
5493;SDS011;2769;49.864;8.656;2023-12-22T11:25:28;15.20;;;2.60;;
5493;SDS011;2769;49.864;8.656;2023-12-22T11:28:16;14.03;;;3.20;;
5493;SDS011;2769;49.864;8.656;2023-12-22T11:31:06;14.53;;;3.47;;
5493;SDS011;2769;49.864;8.656;2023-12-22T11:33:53;9.20;;;2.23;;
5493;SDS011;2769;49.864;8.656;2023-12-22T11:36:55;10.23;;;2.20;;
5493;SDS011;2769;49.864;8.656;2023-12-22T11:39:43;11.47;;;2.23;;
5493;SDS011;2769;49.864;8.656;2023-12-22T11:42:31;7.43;;;2.40;;
5493;SDS011;2769;49.864;8.656;2023-12-22T11:45:21;13.60;;;2.97;;
5493;SDS011;2769;49.864;8.656;2023-12-22T11:48:09;7.53;;;1.90;;
5493;SDS011;2769;49.864;8.656;2023-12-22T11:50:57;14.50;;;2.50;;
5493;SDS011;2769;49.864;8.656;2023-12-22T11:53:44;5.00;;;1.70;;
5493;SDS011;2769;49.864;8.656;2023-12-22T11:56:31;9.23;;;2.07;;
5493;SDS011;2769;49.864;8.656;2023-12-22T11:59:17;10.30;;;1.50;;
5493;SDS011;2769;49.864;8.656;2023-12-22T12:02:04;5.63;;;1.80;;
5493;SDS011;2769;49.864;8.656;2023-12-22T12:04:53;11.63;;;2.20;;
5493;SDS011;2769;49.864;8.656;2023-12-22T12:07:44;5.33;;;1.20;;
5493;SDS011;2769;49.864;8.656;2023-12-22T12:10:51;5.33;;;1.93;;
5493;SDS011;2769;49.864;8.656;2023-12-22T12:13:42;5.90;;;2.27;;
5493;SDS011;2769;49.864;8.656;2023-12-22T12:16:30;8.10;;;3.50;;
5493;SDS011;2769;49.864;8.656;2023-12-22T12:19:17;7.57;;;2.73;;
5493;SDS011;2769;49.864;8.656;2023-12-22T12:22:06;6.60;;;2.50;;
5493;SDS011;2769;49.864;8.656;2023-12-22T12:24:53;5.13;;;2.10;;
5493;SDS011;2769;49.864;8.656;2023-12-22T12:27:41;6.73;;;1.83;;
5493;SDS011;2769;49.864;8.656;2023-12-22T12:30:27;8.53;;;2.00;;
5493;SDS011;2769;49.864;8.656;2023-12-22T12:33:14;9.33;;;2.37;;
5493;SDS011;2769;49.864;8.656;2023-12-22T12:36:02;6.30;;;2.13;;
5493;SDS011;2769;49.864;8.656;2023-12-22T12:38:54;5.43;;;1.83;;
5493;SDS011;2769;49.864;8.656;2023-12-22T12:41:42;4.50;;;2.23;;
5493;SDS011;2769;49.864;8.656;2023-12-22T12:44:31;6.93;;;1.90;;
5493;SDS011;2769;49.864;8.656;2023-12-22T12:47:18;10.07;;;2.23;;
5493;SDS011;2769;49.864;8.656;2023-12-22T12:50:05;12.47;;;2.00;;
5493;SDS011;2769;49.864;8.656;2023-12-22T12:52:53;4.00;;;1.70;;
5493;SDS011;2769;49.864;8.656;2023-12-22T12:55:40;7.60;;;2.13;;
5493;SDS011;2769;49.864;8.656;2023-12-22T12:58:27;5.37;;;2.07;;
5493;SDS011;2769;49.864;8.656;2023-12-22T13:01:15;12.90;;;2.13;;
5493;SDS011;2769;49.864;8.656;2023-12-22T13:04:13;7.40;;;2.03;;
5493;SDS011;2769;49.864;8.656;2023-12-22T13:07:00;11.47;;;2.43;;
5493;SDS011;2769;49.864;8.656;2023-12-22T13:09:47;7.57;;;2.47;;
5493;SDS011;2769;49.864;8.656;2023-12-22T13:12:33;7.93;;;1.80;;
5493;SDS011;2769;49.864;8.656;2023-12-22T13:15:22;8.20;;;1.93;;
5493;SDS011;2769;49.864;8.656;2023-12-22T13:18:10;6.40;;;2.10;;
5493;SDS011;2769;49.864;8.656;2023-12-22T13:20:57;5.67;;;1.57;;
5493;SDS011;2769;49.864;8.656;2023-12-22T13:23:45;7.07;;;1.70;;
5493;SDS011;2769;49.864;8.656;2023-12-22T13:26:31;3.30;;;1.37;;
5493;SDS011;2769;49.864;8.656;2023-12-22T21:29:02;0.80;;;0.80;;
5493;SDS011;2769;49.864;8.656;2023-12-22T21:31:49;2.97;;;1.10;;
5493;SDS011;2769;49.864;8.656;2023-12-22T21:34:36;4.00;;;1.10;;
5493;SDS011;2769;49.864;8.656;2023-12-22T21:37:23;0.97;;;0.80;;
5493;SDS011;2769;49.864;8.656;2023-12-22T21:40:10;1.53;;;0.80;;
5493;SDS011;2769;49.864;8.656;2023-12-22T21:42:57;1.67;;;1.30;;
5493;SDS011;2769;49.864;8.656;2023-12-22T21:45:47;1.80;;;1.03;;
5493;SDS011;2769;49.864;8.656;2023-12-22T21:48:34;0.90;;;0.90;;
5493;SDS011;2769;49.864;8.656;2023-12-22T21:51:22;6.00;;;1.50;;
5493;SDS011;2769;49.864;8.656;2023-12-22T21:54:09;1.23;;;0.80;;
5493;SDS011;2769;49.864;8.656;2023-12-22T21:56:56;2.00;;;0.90;;
5493;SDS011;2769;49.864;8.656;2023-12-22T21:59:44;2.67;;;1.40;;
5493;SDS011;2769;49.864;8.656;2023-12-22T22:02:32;2.30;;;0.90;;
5493;SDS011;2769;49.864;8.656;2023-12-22T22:05:20;1.43;;;0.90;;
5493;SDS011;2769;49.864;8.656;2023-12-22T22:08:07;0.70;;;0.70;;
5493;SDS011;2769;49.864;8.656;2023-12-22T22:10:54;1.17;;;0.90;;
5493;SDS011;2769;49.864;8.656;2023-12-22T22:13:41;1.17;;;0.90;;
5493;SDS011;2769;49.864;8.656;2023-12-22T22:16:28;1.73;;;1.00;;
5493;SDS011;2769;49.864;8.656;2023-12-22T22:19:16;1.47;;;0.77;;
5493;SDS011;2769;49.864;8.656;2023-12-22T22:22:02;1.73;;;1.23;;
5493;SDS011;2769;49.864;8.656;2023-12-22T22:24:50;1.80;;;0.90;;
5493;SDS011;2769;49.864;8.656;2023-12-22T22:27:37;0.83;;;0.80;;
5493;SDS011;2769;49.864;8.656;2023-12-22T22:30:24;1.30;;;0.97;;
5493;SDS011;2769;49.864;8.656;2023-12-22T22:33:10;0.90;;;0.90;;
5493;SDS011;2769;49.864;8.656;2023-12-22T22:35:59;5.23;;;1.50;;
5493;SDS011;2769;49.864;8.656;2023-12-22T22:38:45;2.10;;;0.77;;
5493;SDS011;2769;49.864;8.656;2023-12-22T22:41:32;1.73;;;1.20;;
5493;SDS011;2769;49.864;8.656;2023-12-22T22:44:18;1.20;;;1.10;;
5493;SDS011;2769;49.864;8.656;2023-12-22T22:47:05;0.97;;;0.97;;
5493;SDS011;2769;49.864;8.656;2023-12-22T22:49:52;1.47;;;1.00;;
5493;SDS011;2769;49.864;8.656;2023-12-22T22:52:40;1.90;;;1.07;;
5493;SDS011;2769;49.864;8.656;2023-12-22T22:55:27;4.13;;;1.40;;
5493;SDS011;2769;49.864;8.656;2023-12-22T22:58:14;1.23;;;1.17;;
5493;SDS011;2769;49.864;8.656;2023-12-22T23:01:01;3.17;;;1.33;;
5493;SDS011;2769;49.864;8.656;2023-12-22T23:03:48;1.27;;;1.03;;
5493;SDS011;2769;49.864;8.656;2023-12-22T23:06:38;1.60;;;1.00;;
5493;SDS011;2769;49.864;8.656;2023-12-22T23:09:26;1.97;;;1.43;;
5493;SDS011;2769;49.864;8.656;2023-12-22T23:12:12;2.53;;;1.20;;
5493;SDS011;2769;49.864;8.656;2023-12-22T23:14:58;1.13;;;1.03;;
5493;SDS011;2769;49.864;8.656;2023-12-22T23:17:44;1.30;;;1.30;;
5493;SDS011;2769;49.864;8.656;2023-12-22T23:20:31;2.03;;;1.23;;
5493;SDS011;2769;49.864;8.656;2023-12-22T23:23:17;1.97;;;1.10;;
5493;SDS011;2769;49.864;8.656;2023-12-22T23:26:05;1.07;;;1.00;;
5493;SDS011;2769;49.864;8.656;2023-12-22T23:28:52;0.80;;;0.80;;
5493;SDS011;2769;49.864;8.656;2023-12-22T23:31:39;1.20;;;1.10;;
5493;SDS011;2769;49.864;8.656;2023-12-22T23:34:26;2.40;;;0.90;;
5493;SDS011;2769;49.864;8.656;2023-12-22T23:37:12;2.27;;;0.90;;
5493;SDS011;2769;49.864;8.656;2023-12-22T23:39:59;1.13;;;0.90;;
5493;SDS011;2769;49.864;8.656;2023-12-22T23:42:47;1.77;;;0.80;;
5493;SDS011;2769;49.864;8.656;2023-12-22T23:45:33;1.20;;;0.90;;
5493;SDS011;2769;49.864;8.656;2023-12-22T23:48:19;1.90;;;1.37;;
5493;SDS011;2769;49.864;8.656;2023-12-22T23:51:06;1.57;;;1.30;;
5493;SDS011;2769;49.864;8.656;2023-12-22T23:53:52;1.40;;;1.20;;
5493;SDS011;2769;49.864;8.656;2023-12-22T23:56:39;1.60;;;1.50;;
5493;SDS011;2769;49.864;8.656;2023-12-22T23:59:29;2.60;;;1.00;;
